Philadelphia, Pennsylvania
Traffic Map
Current Weather Conditions
Philadelphia, Pennsylvania
Broken Clouds
Broken Clouds
16°
Feels Like: 16°
Wind Chill: 16° Ceiling: 8000
Heat Index: 16° Visibility: 10mi
Dew Point: 11° Wind: 10mph
Humidity: 75% Direction: 50° (NE)
Pressure: 29.88in Gusts: 0mph
Raw Report DataKPHL 220254Z 05009KT 10SM FEW050 BKN080 BKN200 16/11 A2988 RMK AO2 SLP119 T01560111 51013 $
Traffic Incident Summary
Active as of:
Severity:
Category:
InformationThere was an issue retrieving the traffic information for this location. Please try a different location or try again shortly.
Advertisements
Track Severe Weather on mobile